createdAt,value
2022-10-21T00:01:11.586Z,6.32
2022-10-21T00:03:38.200Z,5.68
2022-10-21T00:06:05.402Z,6.13
2022-10-21T00:08:31.817Z,5.93
2022-10-21T00:11:00.602Z,5.88
2022-10-21T00:13:28.445Z,6.38
2022-10-21T00:16:03.415Z,6.20
2022-10-21T00:18:30.617Z,5.88
2022-10-21T00:20:57.327Z,5.68
2022-10-21T00:23:24.054Z,6.43
2022-10-21T00:25:50.468Z,5.97
2022-10-21T00:28:16.859Z,6.30
2022-10-21T00:30:46.591Z,6.30
2022-10-21T00:33:13.460Z,6.28
2022-10-21T00:35:39.928Z,6.05
2022-10-21T00:38:06.762Z,5.68
2022-10-21T00:40:33.895Z,5.88
2022-10-21T00:43:00.458Z,5.90
2022-10-21T00:45:28.927Z,5.95
2022-10-21T00:48:03.866Z,5.97
2022-10-21T00:50:49.034Z,5.93
2022-10-21T00:53:16.191Z,6.07
2022-10-21T00:55:50.422Z,6.68
2022-10-21T00:58:18.646Z,5.90
2022-10-21T01:00:45.092Z,6.00
2022-10-21T01:03:11.586Z,6.13
2022-10-21T01:05:39.389Z,5.85
2022-10-21T01:08:05.862Z,6.20
2022-10-21T01:10:32.377Z,6.28
2022-10-21T01:13:16.626Z,6.15
2022-10-21T01:15:57.329Z,6.80
2022-10-21T01:18:57.750Z,6.50
2022-10-21T01:21:34.337Z,6.55
2022-10-21T01:24:26.526Z,6.47
2022-10-21T01:27:02.124Z,6.80
2022-10-21T01:30:07.362Z,6.22
2022-10-21T01:32:47.899Z,6.20
2022-10-21T01:35:23.532Z,6.40
2022-10-21T01:38:09.423Z,6.78
2022-10-21T01:40:57.433Z,6.18
2022-10-21T01:43:51.189Z,6.13
2022-10-21T01:46:30.704Z,6.75
2022-10-21T01:49:04.542Z,6.45
2022-10-21T01:51:31.691Z,7.18
2022-10-21T01:54:09.228Z,6.43
2022-10-21T01:56:36.382Z,6.97
2022-10-21T01:59:03.513Z,6.32
2022-10-21T02:01:31.662Z,6.57
2022-10-21T02:04:01.136Z,7.35
2022-10-21T02:06:27.625Z,5.97
2022-10-21T02:08:54.118Z,7.00
2022-10-21T02:11:20.538Z,6.28
2022-10-21T02:14:01.716Z,6.38
2022-10-21T02:16:31.716Z,6.50
2022-10-21T02:19:00.007Z,7.15
2022-10-21T02:21:28.890Z,6.90
2022-10-21T02:23:59.317Z,6.78
2022-10-21T02:26:26.957Z,5.70
2022-10-21T02:28:54.408Z,6.55
2022-10-21T02:31:46.434Z,6.53
2022-10-21T02:34:31.930Z,7.53
2022-10-21T02:37:00.993Z,5.88
2022-10-21T02:39:43.271Z,6.05
2022-10-21T02:42:12.045Z,6.90
2022-10-21T02:44:38.470Z,6.88
2022-10-21T02:47:05.059Z,6.85
2022-10-21T02:49:31.515Z,6.57
2022-10-21T02:51:57.954Z,6.20
2022-10-21T02:54:24.400Z,6.22
2022-10-21T02:56:50.848Z,6.15
2022-10-21T02:59:17.268Z,6.25
2022-10-21T03:01:43.658Z,6.20
2022-10-21T03:04:10.087Z,6.00
2022-10-21T03:06:36.530Z,5.30
2022-10-21T03:09:03.335Z,6.03
2022-10-21T03:11:29.766Z,6.28
2022-10-21T03:13:56.174Z,6.15
2022-10-21T03:16:22.616Z,6.00
2022-10-21T03:18:49.035Z,6.22
2022-10-21T03:21:15.480Z,6.15
2022-10-21T03:23:42.923Z,6.35
2022-10-21T03:26:09.358Z,5.95
2022-10-21T03:28:36.914Z,6.55
2022-10-21T03:31:04.373Z,6.18
2022-10-21T03:33:30.810Z,5.97
2022-10-21T03:35:57.252Z,5.97
2022-10-21T03:38:23.684Z,6.25
2022-10-21T03:40:51.105Z,5.93
2022-10-21T03:43:17.740Z,5.82
2022-10-21T03:45:44.149Z,5.72
2022-10-21T03:48:10.582Z,5.88
2022-10-21T03:50:36.981Z,6.18
2022-10-21T03:53:13.500Z,7.35
2022-10-21T03:55:45.218Z,5.90
2022-10-21T03:58:11.713Z,5.95
2022-10-21T04:00:38.141Z,5.53
2022-10-21T04:03:04.593Z,6.18
2022-10-21T04:05:30.995Z,5.82
2022-10-21T04:07:57.416Z,5.88
2022-10-21T04:10:23.866Z,5.40
2022-10-21T04:12:50.303Z,5.60
2022-10-21T04:15:16.803Z,5.85
2022-10-21T04:17:45.802Z,5.22
2022-10-21T04:20:12.694Z,5.65
2022-10-21T04:22:39.266Z,5.50
2022-10-21T04:25:06.439Z,6.43
2022-10-21T04:27:32.890Z,6.03
2022-10-21T04:29:59.316Z,5.55
2022-10-21T04:32:25.715Z,5.78
2022-10-21T04:34:52.129Z,5.68
2022-10-21T04:37:18.540Z,5.53
2022-10-21T04:39:44.988Z,5.97
2022-10-21T04:42:11.406Z,5.47
2022-10-21T04:44:39.585Z,6.10
2022-10-21T04:47:06.377Z,5.88
2022-10-21T04:49:32.784Z,5.32
2022-10-21T04:51:59.324Z,5.55
2022-10-21T04:54:25.739Z,6.25
2022-10-21T04:56:52.159Z,5.95
2022-10-21T04:59:18.696Z,5.72
2022-10-21T05:01:45.148Z,6.18
2022-10-21T05:04:11.563Z,6.40
2022-10-21T05:06:37.988Z,7.07
2022-10-21T05:09:04.409Z,6.60
2022-10-21T05:11:30.888Z,5.80
2022-10-21T05:13:57.309Z,6.13
2022-10-21T05:16:24.069Z,6.07
2022-10-21T05:18:50.522Z,6.47
2022-10-21T05:21:17.037Z,5.55
2022-10-21T05:23:43.433Z,5.45
2022-10-21T05:26:09.912Z,5.68
2022-10-21T05:28:36.461Z,5.20
2022-10-21T05:31:03.127Z,5.55
2022-10-21T05:33:29.556Z,5.07
2022-10-21T05:36:01.821Z,5.53
2022-10-21T05:38:29.301Z,6.22
2022-10-21T05:40:55.919Z,5.43
2022-10-21T05:43:22.508Z,6.47
2022-10-21T05:45:48.918Z,7.45
2022-10-21T05:48:18.173Z,6.18
2022-10-21T05:50:50.927Z,5.85
2022-10-21T05:53:17.322Z,5.75
2022-10-21T05:55:43.764Z,6.10
2022-10-21T05:58:10.239Z,5.45
2022-10-21T06:00:36.698Z,5.43
2022-10-21T06:03:03.131Z,4.93
2022-10-21T06:05:29.566Z,5.78
2022-10-21T06:07:56.091Z,5.90
2022-10-21T06:10:26.723Z,5.68
2022-10-21T06:12:55.562Z,6.25
2022-10-21T06:15:22.001Z,6.25
2022-10-21T06:17:48.415Z,5.53
2022-10-21T06:20:14.909Z,6.00
2022-10-21T06:22:41.314Z,6.22
2022-10-21T06:25:08.185Z,6.13
2022-10-21T06:27:34.674Z,6.00
2022-10-21T06:30:01.114Z,5.78
2022-10-21T06:32:27.513Z,5.20
2022-10-21T06:34:54.281Z,6.13
2022-10-21T06:37:20.684Z,6.18
2022-10-21T06:39:47.098Z,5.63
2022-10-21T06:42:15.509Z,6.60
2022-10-21T06:44:42.245Z,5.85
2022-10-21T06:47:09.017Z,5.63
2022-10-21T06:49:35.473Z,5.93
2022-10-21T06:52:01.873Z,5.65
2022-10-21T06:54:28.299Z,5.78
2022-10-21T06:56:54.719Z,6.32
2022-10-21T06:59:21.290Z,5.60
2022-10-21T07:01:59.640Z,6.88
2022-10-21T07:04:26.875Z,5.65
2022-10-21T07:06:53.295Z,6.65
2022-10-21T07:09:19.758Z,7.00
2022-10-21T07:11:46.344Z,7.22
2022-10-21T07:14:12.801Z,6.60
2022-10-21T07:16:39.343Z,6.93
2022-10-21T07:19:06.282Z,7.03
2022-10-21T07:21:33.089Z,7.25
2022-10-21T07:24:00.043Z,7.43
2022-10-21T07:26:30.419Z,6.95
2022-10-21T07:28:58.823Z,6.68
2022-10-21T07:31:25.770Z,7.03
2022-10-21T07:33:52.674Z,6.63
2022-10-21T07:36:23.046Z,6.57
2022-10-21T07:38:50.259Z,6.80
2022-10-21T07:41:22.578Z,6.90
2022-10-21T07:43:49.746Z,7.07
2022-10-21T07:46:16.618Z,7.00
2022-10-21T07:48:43.111Z,6.65
2022-10-21T07:51:11.590Z,6.20
2022-10-21T07:53:38.629Z,7.05
2022-10-21T07:56:13.084Z,7.32
2022-10-21T07:58:39.735Z,6.47
2022-10-21T08:01:08.124Z,6.65
2022-10-21T08:03:34.852Z,6.50
2022-10-21T08:06:01.903Z,6.65
2022-10-21T08:08:28.834Z,5.40
2022-10-21T08:10:56.882Z,6.68
2022-10-21T08:13:23.852Z,6.72
2022-10-21T08:15:52.937Z,5.82
2022-10-21T08:18:20.706Z,6.72
2022-10-21T08:20:48.021Z,6.85
2022-10-21T08:23:16.198Z,6.30
2022-10-21T08:25:50.500Z,6.57
2022-10-21T08:28:18.473Z,6.07
2022-10-21T08:30:45.248Z,5.88
2022-10-21T08:33:12.439Z,6.05
2022-10-21T08:35:39.330Z,5.60
2022-10-21T08:40:41.434Z,6.07
2022-10-21T08:43:34.391Z,6.25
2022-10-21T08:46:04.137Z,6.00
2022-10-21T08:48:36.437Z,6.00
2022-10-21T08:51:05.109Z,5.57
2022-10-21T08:53:36.140Z,5.85
2022-10-21T08:56:06.020Z,6.50
2022-10-21T08:58:32.929Z,5.68
2022-10-21T09:01:23.302Z,5.60
2022-10-21T09:04:02.563Z,5.75
2022-10-21T09:06:50.089Z,5.50
2022-10-21T09:09:25.266Z,5.68
2022-10-21T09:12:21.468Z,5.70
2022-10-21T09:15:08.791Z,5.25
2022-10-21T09:17:52.340Z,5.32
2022-10-21T09:20:59.508Z,5.10
2022-10-21T09:24:21.038Z,4.78
2022-10-21T09:26:49.020Z,4.93
2022-10-21T09:29:15.314Z,4.82
2022-10-21T09:31:43.443Z,4.70
2022-10-21T09:34:18.621Z,4.78
2022-10-21T09:36:48.541Z,4.38
2022-10-21T09:39:19.582Z,4.70
2022-10-21T09:41:50.085Z,4.53
2022-10-21T09:44:18.838Z,4.50
2022-10-21T09:46:46.334Z,4.88
2022-10-21T09:52:11.586Z,4.47
2022-10-21T09:54:39.945Z,4.30
2022-10-21T09:57:14.486Z,5.05
2022-10-21T09:59:53.181Z,5.32
2022-10-21T10:02:26.409Z,4.90
2022-10-21T10:04:52.903Z,4.53
2022-10-21T10:07:27.636Z,4.88
2022-10-21T10:09:54.386Z,4.80
2022-10-21T10:12:22.708Z,4.40
2022-10-21T10:14:49.793Z,4.60
2022-10-21T10:17:31.946Z,5.07
2022-10-21T10:20:07.373Z,4.68
2022-10-21T10:22:41.729Z,4.50
2022-10-21T10:25:14.344Z,4.47
2022-10-21T10:28:20.097Z,4.90
2022-10-21T10:30:49.226Z,4.40
2022-10-21T10:33:24.283Z,4.43
2022-10-21T10:35:57.353Z,4.53
2022-10-21T10:38:32.499Z,4.32
2022-10-21T10:41:05.957Z,4.70
2022-10-21T10:43:34.330Z,4.72
2022-10-21T10:46:06.669Z,4.07
2022-10-21T10:48:37.907Z,4.35
2022-10-21T10:51:24.128Z,4.13
2022-10-21T10:54:07.218Z,4.40
2022-10-21T10:56:53.642Z,4.15
2022-10-21T10:59:23.007Z,4.43
2022-10-21T11:01:57.383Z,4.00
2022-10-21T11:04:30.952Z,4.18
2022-10-21T11:07:08.186Z,4.32
2022-10-21T11:09:34.771Z,4.32
2022-10-21T11:12:05.631Z,4.55
2022-10-21T11:14:32.066Z,4.85
2022-10-21T11:17:06.257Z,4.38
2022-10-21T11:19:50.419Z,4.82
2022-10-21T11:22:31.316Z,4.70
2022-10-21T11:25:05.369Z,4.75
2022-10-21T11:27:53.462Z,4.13
2022-10-21T11:30:22.943Z,4.30
2022-10-21T11:33:35.240Z,4.00
2022-10-21T11:36:18.151Z,4.72
2022-10-21T11:39:21.262Z,4.28
2022-10-21T11:41:51.688Z,4.30
2022-10-21T11:44:49.055Z,4.05
2022-10-21T11:47:20.860Z,4.20
2022-10-21T11:49:59.842Z,4.68
2022-10-21T11:53:11.904Z,4.15
2022-10-21T11:56:13.710Z,3.72
2022-10-21T11:59:15.911Z,4.43
2022-10-21T12:02:17.499Z,4.78
2022-10-21T12:04:52.372Z,4.53
2022-10-21T12:07:24.154Z,4.22
2022-10-21T12:10:05.389Z,4.65
2022-10-21T12:12:35.457Z,5.38
2022-10-21T12:15:04.098Z,4.38
2022-10-21T12:17:33.948Z,4.88
2022-10-21T12:20:04.678Z,4.55
2022-10-21T12:22:33.106Z,4.90
2022-10-21T12:25:14.740Z,4.50
2022-10-21T12:27:59.662Z,4.30
2022-10-21T12:30:38.149Z,4.65
2022-10-21T12:33:11.530Z,4.88
2022-10-21T12:35:50.327Z,4.72
2022-10-21T12:38:28.816Z,4.18
2022-10-21T12:41:21.431Z,4.85
2022-10-21T12:44:17.100Z,4.85
2022-10-21T12:46:46.634Z,4.97
2022-10-21T12:49:23.745Z,4.57
2022-10-21T12:51:54.776Z,4.82
2022-10-21T12:54:30.320Z,4.32
2022-10-21T12:57:05.041Z,4.95
2022-10-21T12:59:36.282Z,4.60
2022-10-21T13:02:05.561Z,4.30
2022-10-21T13:04:31.856Z,5.13
2022-10-21T13:06:59.144Z,4.82
2022-10-21T13:09:37.108Z,5.70
2022-10-21T13:12:09.553Z,4.90
2022-10-21T13:14:41.828Z,4.85
2022-10-21T13:17:20.362Z,4.50
2022-10-21T13:19:51.561Z,4.35
2022-10-21T13:22:41.630Z,5.53
2022-10-21T13:25:30.532Z,5.30
2022-10-21T13:28:18.269Z,4.65
2022-10-21T13:30:47.578Z,5.18
2022-10-21T13:33:25.760Z,5.10
2022-10-21T13:35:54.461Z,5.00
2022-10-21T13:38:36.685Z,4.93
2022-10-21T13:41:05.865Z,5.05
2022-10-21T13:43:38.477Z,5.05
2022-10-21T13:46:10.306Z,5.10
2022-10-21T13:48:42.481Z,5.45
2022-10-21T13:51:21.981Z,4.63
2022-10-21T13:53:49.732Z,4.57
2022-10-21T13:56:28.968Z,5.85
2022-10-21T13:58:55.743Z,5.05
2022-10-21T14:01:25.734Z,5.30
2022-10-21T14:04:10.932Z,4.82
2022-10-21T14:06:40.801Z,4.82
2022-10-21T14:09:10.326Z,5.30
2022-10-21T14:11:43.670Z,5.05
2022-10-21T14:14:11.022Z,6.03
2022-10-21T14:16:40.212Z,5.65
2022-10-21T14:19:09.552Z,5.28
2022-10-21T14:21:38.196Z,4.75
2022-10-21T14:24:05.203Z,5.18
2022-10-21T14:26:32.520Z,5.82
2022-10-21T14:29:00.894Z,5.82
2022-10-21T14:31:27.467Z,6.65
2022-10-21T14:33:53.947Z,6.38
2022-10-21T14:36:23.500Z,5.75
2022-10-21T14:39:00.365Z,6.00
2022-10-21T14:41:31.579Z,6.45
2022-10-21T14:44:05.935Z,5.55
2022-10-21T14:46:41.060Z,4.88
2022-10-21T14:49:20.010Z,5.95
2022-10-21T14:51:46.555Z,5.80
2022-10-21T14:54:28.788Z,5.82
2022-10-21T14:56:55.263Z,6.35
2022-10-21T14:59:27.071Z,6.10
2022-10-21T15:01:53.729Z,5.03
2022-10-21T15:04:58.189Z,5.70
2022-10-21T15:07:28.948Z,6.22
2022-10-21T15:10:19.634Z,5.70
2022-10-21T15:12:51.236Z,6.28
2022-10-21T15:15:53.456Z,6.05
2022-10-21T15:18:27.049Z,6.10
2022-10-21T15:21:08.814Z,6.30
2022-10-21T15:23:39.114Z,5.65
2022-10-21T15:26:10.090Z,5.35
2022-10-21T15:28:36.601Z,6.53
2022-10-21T15:31:19.615Z,5.60
2022-10-21T15:33:48.354Z,5.80
2022-10-21T15:36:16.030Z,4.78
2022-10-21T15:38:48.351Z,5.38
2022-10-21T15:41:24.125Z,6.00
2022-10-21T15:43:56.807Z,5.45
2022-10-21T15:46:25.537Z,5.38
2022-10-21T15:48:52.500Z,5.85
2022-10-21T15:51:19.241Z,5.68
2022-10-21T15:53:45.901Z,6.03
2022-10-21T15:56:17.579Z,5.85
2022-10-21T15:58:44.000Z,6.03
2022-10-21T16:01:16.140Z,6.63
2022-10-21T16:03:43.496Z,6.28
2022-10-21T16:06:17.968Z,6.60
2022-10-21T16:08:44.613Z,7.07
2022-10-21T16:11:21.798Z,7.50
2022-10-21T16:13:56.408Z,7.25
2022-10-21T16:16:24.946Z,7.05
2022-10-21T16:18:52.355Z,6.47
2022-10-21T16:21:20.310Z,8.15
2022-10-21T16:23:47.042Z,7.43
2022-10-21T16:26:24.712Z,7.80
2022-10-21T16:28:52.275Z,7.55
2022-10-21T16:31:18.719Z,8.02
2022-10-21T16:33:45.491Z,8.43
2022-10-21T16:36:17.195Z,7.80
2022-10-21T16:38:45.178Z,7.50
2022-10-21T16:41:13.930Z,8.25
2022-10-21T16:43:40.798Z,7.47
2022-10-21T16:46:21.196Z,8.18
2022-10-21T16:48:50.966Z,7.18
2022-10-21T16:51:17.649Z,6.57
2022-10-21T16:53:44.080Z,7.68
2022-10-21T16:56:10.560Z,8.15
2022-10-21T16:58:36.964Z,8.15
2022-10-21T17:01:04.878Z,7.40
2022-10-21T17:03:31.557Z,7.70
2022-10-21T17:05:58.048Z,7.55
2022-10-21T17:08:24.518Z,7.50
2022-10-21T17:10:51.099Z,6.90
2022-10-21T17:13:17.572Z,7.45
2022-10-21T17:15:44.204Z,8.68
2022-10-21T17:18:13.238Z,8.43
2022-10-21T17:20:42.266Z,7.40
2022-10-21T17:23:09.888Z,7.63
2022-10-21T17:25:36.314Z,7.00
2022-10-21T17:28:02.735Z,7.43
2022-10-21T17:30:29.200Z,5.80
2022-10-21T17:32:55.608Z,6.97
2022-10-21T17:35:22.047Z,6.65
2022-10-21T17:37:49.261Z,6.63
2022-10-21T17:40:18.319Z,6.43
2022-10-21T17:42:45.122Z,6.82
2022-10-21T17:45:13.249Z,7.05
2022-10-21T17:47:40.545Z,8.75
2022-10-21T17:50:08.311Z,9.40
2022-10-21T17:52:36.013Z,9.43
2022-10-21T17:55:03.219Z,7.28
2022-10-21T17:57:32.944Z,7.18
2022-10-21T18:00:00.002Z,7.25
2022-10-21T18:02:33.349Z,7.78
2022-10-21T18:05:00.729Z,8.32
2022-10-21T18:07:27.824Z,6.82
2022-10-21T18:09:54.796Z,5.82
2022-10-21T18:12:21.874Z,5.03
2022-10-21T18:14:48.441Z,5.22
2022-10-21T18:17:15.979Z,5.15
2022-10-21T18:19:42.385Z,5.57
2022-10-21T18:22:08.803Z,6.15
2022-10-21T18:24:35.258Z,6.20
2022-10-21T18:27:01.758Z,6.10
2022-10-21T18:29:28.174Z,5.82
2022-10-21T18:31:56.305Z,5.78
2022-10-21T18:34:22.738Z,5.82
2022-10-21T18:36:49.393Z,5.07
2022-10-21T18:39:16.121Z,5.53
2022-10-21T18:41:42.671Z,5.10
2022-10-21T18:44:11.296Z,4.95
2022-10-21T18:46:39.835Z,5.40
2022-10-21T18:49:10.574Z,5.18
2022-10-21T18:51:37.016Z,5.40
2022-10-21T18:54:03.661Z,5.70
2022-10-21T18:56:30.182Z,6.30
2022-10-21T18:58:56.899Z,6.13
2022-10-21T19:01:25.307Z,6.00
2022-10-21T19:03:54.571Z,5.90
2022-10-21T19:06:46.494Z,6.28
2022-10-21T19:09:21.139Z,6.10
2022-10-21T19:11:47.631Z,5.95
2022-10-21T19:14:15.265Z,5.95
2022-10-21T19:16:45.777Z,5.85
2022-10-21T19:19:13.154Z,5.80
2022-10-21T19:21:39.570Z,5.63
2022-10-21T19:24:06.425Z,5.68
2022-10-21T19:26:34.473Z,6.10
2022-10-21T19:29:02.849Z,6.72
2022-10-21T19:31:29.310Z,7.20
2022-10-21T19:33:55.874Z,6.47
2022-10-21T19:36:22.337Z,6.47
2022-10-21T19:38:49.075Z,5.72
2022-10-21T19:41:21.761Z,7.43
2022-10-21T19:43:48.778Z,7.28
2022-10-21T19:46:19.974Z,7.72
2022-10-21T19:48:49.400Z,6.63
2022-10-21T19:51:17.434Z,5.45
2022-10-21T19:53:45.194Z,5.70
2022-10-21T19:56:12.488Z,5.65
2022-10-21T19:58:43.506Z,5.90
2022-10-21T20:01:12.294Z,5.45
2022-10-21T20:03:40.380Z,5.63
2022-10-21T20:06:08.308Z,5.47
2022-10-21T20:08:35.748Z,4.90
2022-10-21T20:11:04.440Z,4.95
2022-10-21T20:13:30.934Z,4.88
2022-10-21T20:15:59.144Z,4.60
2022-10-21T20:18:27.328Z,4.97
2022-10-21T20:20:54.996Z,4.45
2022-10-21T20:23:22.106Z,4.07
2022-10-21T20:25:49.638Z,4.53
2022-10-21T20:28:16.573Z,3.85
2022-10-21T20:30:43.186Z,4.45
2022-10-21T20:33:09.658Z,4.40
2022-10-21T20:35:42.432Z,4.15
2022-10-21T20:38:09.615Z,4.55
2022-10-21T20:40:36.410Z,4.13
2022-10-21T20:43:02.845Z,4.00
2022-10-21T20:45:29.408Z,4.15
2022-10-21T20:47:56.115Z,5.18
2022-10-21T20:50:23.559Z,4.88
2022-10-21T20:52:49.965Z,4.60
2022-10-21T20:55:16.369Z,4.82
2022-10-21T20:57:43.060Z,5.75
2022-10-21T21:00:10.300Z,5.78
2022-10-21T21:02:37.321Z,4.70
2022-10-21T21:05:04.503Z,5.45
2022-10-21T21:07:30.917Z,4.85
2022-10-21T21:10:02.674Z,4.35
2022-10-21T21:12:29.680Z,4.20
2022-10-21T21:14:56.099Z,4.28
2022-10-21T21:17:22.576Z,3.95
2022-10-21T21:19:49.078Z,4.10
2022-10-21T21:22:15.614Z,3.40
2022-10-21T21:24:42.167Z,4.00
2022-10-21T21:27:08.604Z,3.85
2022-10-21T21:29:35.783Z,3.92
2022-10-21T21:32:02.160Z,3.38
2022-10-21T21:34:28.657Z,3.88
2022-10-21T21:36:55.064Z,3.65
2022-10-21T21:39:21.518Z,3.55
2022-10-21T21:41:47.950Z,3.55
2022-10-21T21:44:14.406Z,3.70
2022-10-21T21:46:40.872Z,3.70
2022-10-21T21:49:07.327Z,3.88
2022-10-21T21:51:35.189Z,3.75
2022-10-21T21:54:02.375Z,3.78
2022-10-21T21:56:28.905Z,4.05
2022-10-21T21:58:57.608Z,3.75
2022-10-21T22:01:26.991Z,3.47
2022-10-21T22:03:54.044Z,3.30
2022-10-21T22:06:22.779Z,3.05
2022-10-21T22:08:49.813Z,3.38
2022-10-21T22:11:24.872Z,3.47
2022-10-21T22:13:51.469Z,3.30
2022-10-21T22:16:19.792Z,3.80
2022-10-21T22:18:46.227Z,3.25
2022-10-21T22:21:14.654Z,3.50
2022-10-21T22:23:42.219Z,3.60
2022-10-21T22:26:09.266Z,3.45
2022-10-21T22:28:35.802Z,3.63
2022-10-21T22:31:05.439Z,3.25
2022-10-21T22:33:32.422Z,3.30
2022-10-21T22:35:59.163Z,3.80
2022-10-21T22:38:26.083Z,3.20
2022-10-21T22:40:57.373Z,3.50
2022-10-21T22:43:24.745Z,3.28
2022-10-21T22:45:51.132Z,3.45
2022-10-21T22:48:17.565Z,3.60
2022-10-21T22:50:44.197Z,3.80
2022-10-21T22:53:10.900Z,4.20
2022-10-21T22:55:37.957Z,4.07
2022-10-21T22:58:04.842Z,4.20
2022-10-21T23:00:31.288Z,4.13
2022-10-21T23:02:57.717Z,4.82
2022-10-21T23:05:24.144Z,4.57
2022-10-21T23:07:50.851Z,4.30
2022-10-21T23:10:17.391Z,4.57
2022-10-21T23:12:43.828Z,4.38
2022-10-21T23:15:10.850Z,4.05
2022-10-21T23:17:37.273Z,3.75
2022-10-21T23:20:04.122Z,4.30
2022-10-21T23:22:30.518Z,3.92
2022-10-21T23:24:56.956Z,3.75
2022-10-21T23:27:23.368Z,3.83
2022-10-21T23:29:49.785Z,4.32
2022-10-21T23:32:16.210Z,3.63
2022-10-21T23:34:42.634Z,4.20
2022-10-21T23:37:09.110Z,3.78
2022-10-21T23:39:35.607Z,3.78
2022-10-21T23:42:02.119Z,3.80
2022-10-21T23:44:29.356Z,3.72
2022-10-21T23:46:56.654Z,3.80
2022-10-21T23:49:23.617Z,3.50
2022-10-21T23:51:50.073Z,3.50
2022-10-21T23:54:16.804Z,4.18
2022-10-21T23:56:43.365Z,3.65
2022-10-21T23:59:09.886Z,3.80
